sensor_id;sensor_type;location;lat;lon;timestamp;P1;durP1;ratioP1;P2;durP2;ratioP2
72408;SDS011;60402;48.082;11.628;2022-08-05T00:03:37;6.47;;;3.42;;
72408;SDS011;60402;48.082;11.628;2022-08-05T00:06:02;6.10;;;3.47;;
72408;SDS011;60402;48.082;11.628;2022-08-05T00:08:28;5.93;;;3.53;;
72408;SDS011;60402;48.082;11.628;2022-08-05T00:10:53;7.60;;;3.40;;
72408;SDS011;60402;48.082;11.628;2022-08-05T00:13:18;6.18;;;3.65;;
72408;SDS011;60402;48.082;11.628;2022-08-05T00:15:44;5.97;;;3.30;;
72408;SDS011;60402;48.082;11.628;2022-08-05T00:18:09;6.30;;;3.80;;
72408;SDS011;60402;48.082;11.628;2022-08-05T00:20:34;5.68;;;3.58;;
72408;SDS011;60402;48.082;11.628;2022-08-05T00:23:00;5.97;;;3.65;;
72408;SDS011;60402;48.082;11.628;2022-08-05T00:25:25;6.00;;;3.60;;
72408;SDS011;60402;48.082;11.628;2022-08-05T00:27:50;5.43;;;3.47;;
72408;SDS011;60402;48.082;11.628;2022-08-05T00:30:16;6.03;;;3.42;;
72408;SDS011;60402;48.082;11.628;2022-08-05T00:32:41;5.10;;;3.17;;
72408;SDS011;60402;48.082;11.628;2022-08-05T00:35:06;5.65;;;3.63;;
72408;SDS011;60402;48.082;11.628;2022-08-05T00:37:32;6.35;;;3.83;;
72408;SDS011;60402;48.082;11.628;2022-08-05T00:39:58;5.20;;;3.22;;
72408;SDS011;60402;48.082;11.628;2022-08-05T00:42:33;5.90;;;3.85;;
72408;SDS011;60402;48.082;11.628;2022-08-05T00:45:00;5.95;;;3.75;;
72408;SDS011;60402;48.082;11.628;2022-08-05T00:47:28;6.38;;;3.80;;
72408;SDS011;60402;48.082;11.628;2022-08-05T00:49:53;6.93;;;3.47;;
72408;SDS011;60402;48.082;11.628;2022-08-05T00:52:19;5.45;;;3.80;;
72408;SDS011;60402;48.082;11.628;2022-08-05T00:54:44;5.53;;;3.40;;
72408;SDS011;60402;48.082;11.628;2022-08-05T00:57:09;6.18;;;3.60;;
72408;SDS011;60402;48.082;11.628;2022-08-05T00:59:35;6.53;;;3.75;;
72408;SDS011;60402;48.082;11.628;2022-08-05T01:02:00;5.82;;;3.63;;
72408;SDS011;60402;48.082;11.628;2022-08-05T01:04:25;6.60;;;3.60;;
72408;SDS011;60402;48.082;11.628;2022-08-05T01:06:51;6.03;;;3.88;;
72408;SDS011;60402;48.082;11.628;2022-08-05T01:09:16;5.05;;;3.38;;
72408;SDS011;60402;48.082;11.628;2022-08-05T01:11:41;7.63;;;4.10;;
72408;SDS011;60402;48.082;11.628;2022-08-05T01:17:11;5.95;;;3.80;;
72408;SDS011;60402;48.082;11.628;2022-08-05T01:19:46;6.75;;;3.90;;
72408;SDS011;60402;48.082;11.628;2022-08-05T01:25:23;5.38;;;3.47;;
72408;SDS011;60402;48.082;11.628;2022-08-05T01:30:51;5.78;;;3.50;;
72408;SDS011;60402;48.082;11.628;2022-08-05T01:33:20;8.65;;;3.80;;
72408;SDS011;60402;48.082;11.628;2022-08-05T01:35:48;5.57;;;3.67;;
72408;SDS011;60402;48.082;11.628;2022-08-05T01:38:16;5.22;;;3.80;;
72408;SDS011;60402;48.082;11.628;2022-08-05T01:40:42;5.57;;;3.33;;
72408;SDS011;60402;48.082;11.628;2022-08-05T01:43:08;6.82;;;3.70;;
72408;SDS011;60402;48.082;11.628;2022-08-05T01:45:35;6.82;;;4.50;;
72408;SDS011;60402;48.082;11.628;2022-08-05T01:48:03;5.32;;;3.33;;
72408;SDS011;60402;48.082;11.628;2022-08-05T01:50:32;5.60;;;3.50;;
72408;SDS011;60402;48.082;11.628;2022-08-05T01:53:03;7.22;;;3.72;;
72408;SDS011;60402;48.082;11.628;2022-08-05T01:55:31;6.10;;;3.47;;
72408;SDS011;60402;48.082;11.628;2022-08-05T01:57:58;6.68;;;3.70;;
72408;SDS011;60402;48.082;11.628;2022-08-05T02:00:25;6.05;;;3.67;;
72408;SDS011;60402;48.082;11.628;2022-08-05T02:02:56;7.93;;;3.60;;
72408;SDS011;60402;48.082;11.628;2022-08-05T02:05:26;6.30;;;3.65;;
72408;SDS011;60402;48.082;11.628;2022-08-05T02:07:55;6.32;;;3.55;;
72408;SDS011;60402;48.082;11.628;2022-08-05T02:10:25;7.05;;;3.70;;
72408;SDS011;60402;48.082;11.628;2022-08-05T02:12:54;6.57;;;3.85;;
72408;SDS011;60402;48.082;11.628;2022-08-05T02:15:26;5.05;;;3.28;;
72408;SDS011;60402;48.082;11.628;2022-08-05T02:20:24;6.32;;;3.80;;
72408;SDS011;60402;48.082;11.628;2022-08-05T02:22:55;8.52;;;3.78;;
72408;SDS011;60402;48.082;11.628;2022-08-05T02:25:25;6.28;;;3.60;;
72408;SDS011;60402;48.082;11.628;2022-08-05T02:27:54;6.18;;;3.63;;
72408;SDS011;60402;48.082;11.628;2022-08-05T02:30:21;6.97;;;3.58;;
72408;SDS011;60402;48.082;11.628;2022-08-05T02:32:49;5.88;;;3.58;;
72408;SDS011;60402;48.082;11.628;2022-08-05T02:35:18;6.50;;;3.50;;
72408;SDS011;60402;48.082;11.628;2022-08-05T02:37:46;5.72;;;3.47;;
72408;SDS011;60402;48.082;11.628;2022-08-05T02:40:12;5.68;;;3.33;;
72408;SDS011;60402;48.082;11.628;2022-08-05T02:42:40;5.72;;;3.75;;
72408;SDS011;60402;48.082;11.628;2022-08-05T02:45:07;6.13;;;3.45;;
72408;SDS011;60402;48.082;11.628;2022-08-05T02:47:33;5.90;;;3.75;;
72408;SDS011;60402;48.082;11.628;2022-08-05T02:50:00;5.25;;;3.17;;
72408;SDS011;60402;48.082;11.628;2022-08-05T02:52:27;5.85;;;3.45;;
72408;SDS011;60402;48.082;11.628;2022-08-05T02:54:54;6.40;;;3.80;;
72408;SDS011;60402;48.082;11.628;2022-08-05T02:57:20;5.97;;;3.45;;
72408;SDS011;60402;48.082;11.628;2022-08-05T02:59:48;5.78;;;3.55;;
72408;SDS011;60402;48.082;11.628;2022-08-05T03:02:16;5.55;;;3.28;;
72408;SDS011;60402;48.082;11.628;2022-08-05T03:04:44;6.75;;;3.40;;
72408;SDS011;60402;48.082;11.628;2022-08-05T03:07:11;6.18;;;3.70;;
72408;SDS011;60402;48.082;11.628;2022-08-05T03:09:37;5.38;;;3.25;;
72408;SDS011;60402;48.082;11.628;2022-08-05T03:12:06;6.10;;;3.45;;
72408;SDS011;60402;48.082;11.628;2022-08-05T03:14:32;5.68;;;3.47;;
72408;SDS011;60402;48.082;11.628;2022-08-05T03:16:58;6.25;;;3.42;;
72408;SDS011;60402;48.082;11.628;2022-08-05T03:19:24;6.00;;;3.40;;
72408;SDS011;60402;48.082;11.628;2022-08-05T03:21:50;6.75;;;3.78;;
72408;SDS011;60402;48.082;11.628;2022-08-05T03:24:16;6.10;;;3.75;;
72408;SDS011;60402;48.082;11.628;2022-08-05T03:26:43;6.25;;;3.65;;
72408;SDS011;60402;48.082;11.628;2022-08-05T03:29:09;6.22;;;3.85;;
72408;SDS011;60402;48.082;11.628;2022-08-05T03:31:34;5.60;;;3.45;;
72408;SDS011;60402;48.082;11.628;2022-08-05T03:33:59;5.82;;;3.38;;
72408;SDS011;60402;48.082;11.628;2022-08-05T03:36:25;5.68;;;3.38;;
72408;SDS011;60402;48.082;11.628;2022-08-05T03:38:51;6.38;;;3.53;;
72408;SDS011;60402;48.082;11.628;2022-08-05T03:41:17;5.40;;;3.15;;
72408;SDS011;60402;48.082;11.628;2022-08-05T03:43:42;5.30;;;3.50;;
72408;SDS011;60402;48.082;11.628;2022-08-05T03:46:07;6.07;;;4.13;;
72408;SDS011;60402;48.082;11.628;2022-08-05T03:48:33;5.75;;;3.63;;
72408;SDS011;60402;48.082;11.628;2022-08-05T03:53:31;5.35;;;3.50;;
72408;SDS011;60402;48.082;11.628;2022-08-05T03:56:04;5.97;;;3.80;;
72408;SDS011;60402;48.082;11.628;2022-08-05T03:58:35;7.93;;;3.92;;
72408;SDS011;60402;48.082;11.628;2022-08-05T04:01:03;6.30;;;3.58;;
72408;SDS011;60402;48.082;11.628;2022-08-05T04:06:00;6.13;;;3.60;;
72408;SDS011;60402;48.082;11.628;2022-08-05T04:08:26;5.72;;;3.80;;
72408;SDS011;60402;48.082;11.628;2022-08-05T04:10:54;6.18;;;4.05;;
72408;SDS011;60402;48.082;11.628;2022-08-05T04:13:21;5.90;;;3.70;;
72408;SDS011;60402;48.082;11.628;2022-08-05T04:15:47;6.60;;;3.92;;
72408;SDS011;60402;48.082;11.628;2022-08-05T04:18:13;6.30;;;3.90;;
72408;SDS011;60402;48.082;11.628;2022-08-05T04:20:39;5.78;;;3.58;;
72408;SDS011;60402;48.082;11.628;2022-08-05T04:23:05;7.18;;;3.92;;
72408;SDS011;60402;48.082;11.628;2022-08-05T04:25:30;5.85;;;3.58;;
72408;SDS011;60402;48.082;11.628;2022-08-05T04:27:56;7.32;;;3.80;;
72408;SDS011;60402;48.082;11.628;2022-08-05T04:30:21;6.88;;;3.53;;
72408;SDS011;60402;48.082;11.628;2022-08-05T04:32:47;6.20;;;3.72;;
72408;SDS011;60402;48.082;11.628;2022-08-05T04:35:12;6.03;;;3.42;;
72408;SDS011;60402;48.082;11.628;2022-08-05T04:37:37;6.18;;;3.70;;
72408;SDS011;60402;48.082;11.628;2022-08-05T04:40:03;7.93;;;3.65;;
72408;SDS011;60402;48.082;11.628;2022-08-05T04:42:28;7.57;;;3.90;;
72408;SDS011;60402;48.082;11.628;2022-08-05T04:44:54;5.65;;;3.40;;
72408;SDS011;60402;48.082;11.628;2022-08-05T04:47:19;5.30;;;3.27;;
72408;SDS011;60402;48.082;11.628;2022-08-05T04:49:44;5.70;;;3.40;;
72408;SDS011;60402;48.082;11.628;2022-08-05T04:52:10;5.68;;;3.30;;
72408;SDS011;60402;48.082;11.628;2022-08-05T04:54:36;7.50;;;3.42;;
72408;SDS011;60402;48.082;11.628;2022-08-05T04:57:01;5.75;;;2.95;;
72408;SDS011;60402;48.082;11.628;2022-08-05T04:59:26;6.22;;;3.15;;
72408;SDS011;60402;48.082;11.628;2022-08-05T05:01:52;6.03;;;3.28;;
72408;SDS011;60402;48.082;11.628;2022-08-05T05:04:17;5.15;;;2.90;;
72408;SDS011;60402;48.082;11.628;2022-08-05T05:06:42;4.82;;;2.95;;
72408;SDS011;60402;48.082;11.628;2022-08-05T05:09:09;5.28;;;3.00;;
72408;SDS011;60402;48.082;11.628;2022-08-05T05:11:35;5.32;;;3.13;;
72408;SDS011;60402;48.082;11.628;2022-08-05T05:14:00;5.00;;;3.00;;
72408;SDS011;60402;48.082;11.628;2022-08-05T05:16:27;4.68;;;2.70;;
72408;SDS011;60402;48.082;11.628;2022-08-05T05:18:53;5.05;;;2.75;;
72408;SDS011;60402;48.082;11.628;2022-08-05T05:21:18;4.90;;;3.20;;
72408;SDS011;60402;48.082;11.628;2022-08-05T05:23:43;5.78;;;2.90;;
72408;SDS011;60402;48.082;11.628;2022-08-05T05:26:08;5.57;;;2.95;;
72408;SDS011;60402;48.082;11.628;2022-08-05T05:28:34;5.00;;;2.70;;
72408;SDS011;60402;48.082;11.628;2022-08-05T05:30:59;4.27;;;2.70;;
72408;SDS011;60402;48.082;11.628;2022-08-05T05:33:24;5.63;;;2.63;;
72408;SDS011;60402;48.082;11.628;2022-08-05T05:35:50;5.82;;;2.80;;
72408;SDS011;60402;48.082;11.628;2022-08-05T05:38:15;7.30;;;3.00;;
72408;SDS011;60402;48.082;11.628;2022-08-05T05:40:41;4.78;;;2.60;;
72408;SDS011;60402;48.082;11.628;2022-08-05T05:43:07;6.18;;;3.05;;
72408;SDS011;60402;48.082;11.628;2022-08-05T05:45:32;4.85;;;2.50;;
72408;SDS011;60402;48.082;11.628;2022-08-05T05:47:58;5.65;;;2.90;;
72408;SDS011;60402;48.082;11.628;2022-08-05T05:50:24;5.70;;;2.63;;
72408;SDS011;60402;48.082;11.628;2022-08-05T05:52:49;5.93;;;3.10;;
72408;SDS011;60402;48.082;11.628;2022-08-05T05:55:15;4.38;;;2.72;;
72408;SDS011;60402;48.082;11.628;2022-08-05T05:57:42;5.30;;;2.85;;
72408;SDS011;60402;48.082;11.628;2022-08-05T06:00:09;4.40;;;2.25;;
72408;SDS011;60402;48.082;11.628;2022-08-05T06:02:36;5.40;;;2.58;;
72408;SDS011;60402;48.082;11.628;2022-08-05T06:05:02;8.48;;;3.05;;
72408;SDS011;60402;48.082;11.628;2022-08-05T06:07:27;6.60;;;2.63;;
72408;SDS011;60402;48.082;11.628;2022-08-05T06:09:52;5.03;;;2.50;;
72408;SDS011;60402;48.082;11.628;2022-08-05T06:12:18;6.28;;;2.63;;
72408;SDS011;60402;48.082;11.628;2022-08-05T06:14:43;5.28;;;2.53;;
72408;SDS011;60402;48.082;11.628;2022-08-05T06:17:09;3.92;;;2.58;;
72408;SDS011;60402;48.082;11.628;2022-08-05T06:19:36;6.30;;;2.78;;
72408;SDS011;60402;48.082;11.628;2022-08-05T06:22:05;4.00;;;2.20;;
72408;SDS011;60402;48.082;11.628;2022-08-05T06:24:32;4.53;;;2.47;;
72408;SDS011;60402;48.082;11.628;2022-08-05T06:26:58;4.10;;;2.15;;
72408;SDS011;60402;48.082;11.628;2022-08-05T06:29:23;5.13;;;2.80;;
72408;SDS011;60402;48.082;11.628;2022-08-05T06:31:49;5.28;;;2.40;;
72408;SDS011;60402;48.082;11.628;2022-08-05T06:34:15;5.25;;;2.60;;
72408;SDS011;60402;48.082;11.628;2022-08-05T06:36:40;5.68;;;2.28;;
72408;SDS011;60402;48.082;11.628;2022-08-05T06:39:05;4.13;;;2.30;;
72408;SDS011;60402;48.082;11.628;2022-08-05T06:41:31;4.47;;;2.47;;
72408;SDS011;60402;48.082;11.628;2022-08-05T06:43:56;3.75;;;2.42;;
72408;SDS011;60402;48.082;11.628;2022-08-05T06:46:21;4.15;;;2.40;;
72408;SDS011;60402;48.082;11.628;2022-08-05T06:48:47;9.65;;;2.90;;
72408;SDS011;60402;48.082;11.628;2022-08-05T06:51:12;4.93;;;2.40;;
72408;SDS011;60402;48.082;11.628;2022-08-05T06:53:38;5.28;;;2.83;;
72408;SDS011;60402;48.082;11.628;2022-08-05T06:56:03;3.90;;;2.20;;
72408;SDS011;60402;48.082;11.628;2022-08-05T06:58:29;6.05;;;2.58;;
72408;SDS011;60402;48.082;11.628;2022-08-05T07:00:59;4.82;;;2.40;;
72408;SDS011;60402;48.082;11.628;2022-08-05T07:03:26;5.05;;;2.33;;
72408;SDS011;60402;48.082;11.628;2022-08-05T07:05:52;5.72;;;2.25;;
72408;SDS011;60402;48.082;11.628;2022-08-05T07:08:18;4.60;;;2.30;;
72408;SDS011;60402;48.082;11.628;2022-08-05T07:10:43;4.63;;;2.30;;
72408;SDS011;60402;48.082;11.628;2022-08-05T07:13:08;3.92;;;2.35;;
72408;SDS011;60402;48.082;11.628;2022-08-05T07:15:52;4.88;;;2.30;;
72408;SDS011;60402;48.082;11.628;2022-08-05T07:18:36;3.78;;;2.25;;
72408;SDS011;60402;48.082;11.628;2022-08-05T07:21:01;6.18;;;2.40;;
72408;SDS011;60402;48.082;11.628;2022-08-05T07:23:27;3.70;;;2.03;;
72408;SDS011;60402;48.082;11.628;2022-08-05T07:25:52;6.65;;;2.30;;
72408;SDS011;60402;48.082;11.628;2022-08-05T07:28:18;4.93;;;2.35;;
72408;SDS011;60402;48.082;11.628;2022-08-05T07:30:43;4.00;;;2.30;;
72408;SDS011;60402;48.082;11.628;2022-08-05T07:33:09;4.10;;;2.30;;
72408;SDS011;60402;48.082;11.628;2022-08-05T07:35:38;4.85;;;2.60;;
72408;SDS011;60402;48.082;11.628;2022-08-05T07:38:03;4.32;;;2.20;;
72408;SDS011;60402;48.082;11.628;2022-08-05T07:40:29;5.90;;;2.40;;
72408;SDS011;60402;48.082;11.628;2022-08-05T07:42:54;4.65;;;2.50;;
72408;SDS011;60402;48.082;11.628;2022-08-05T07:45:20;4.93;;;2.60;;
72408;SDS011;60402;48.082;11.628;2022-08-05T07:47:45;4.45;;;2.30;;
72408;SDS011;60402;48.082;11.628;2022-08-05T07:50:10;6.00;;;2.35;;
72408;SDS011;60402;48.082;11.628;2022-08-05T07:52:39;4.00;;;2.33;;
72408;SDS011;60402;48.082;11.628;2022-08-05T07:55:05;4.22;;;1.98;;
72408;SDS011;60402;48.082;11.628;2022-08-05T07:57:31;4.95;;;2.10;;
72408;SDS011;60402;48.082;11.628;2022-08-05T07:59:57;6.15;;;2.67;;
72408;SDS011;60402;48.082;11.628;2022-08-05T08:02:26;4.32;;;2.42;;
72408;SDS011;60402;48.082;11.628;2022-08-05T08:04:53;4.55;;;2.38;;
72408;SDS011;60402;48.082;11.628;2022-08-05T08:07:19;3.95;;;2.22;;
72408;SDS011;60402;48.082;11.628;2022-08-05T08:09:45;4.28;;;2.30;;
72408;SDS011;60402;48.082;11.628;2022-08-05T08:12:10;4.78;;;2.00;;
72408;SDS011;60402;48.082;11.628;2022-08-05T08:14:39;3.85;;;2.00;;
72408;SDS011;60402;48.082;11.628;2022-08-05T08:17:04;4.40;;;2.35;;
72408;SDS011;60402;48.082;11.628;2022-08-05T08:19:35;4.20;;;2.10;;
72408;SDS011;60402;48.082;11.628;2022-08-05T08:22:00;6.20;;;2.25;;
72408;SDS011;60402;48.082;11.628;2022-08-05T08:24:26;4.82;;;2.40;;
72408;SDS011;60402;48.082;11.628;2022-08-05T08:26:51;4.25;;;2.50;;
72408;SDS011;60402;48.082;11.628;2022-08-05T08:29:16;7.07;;;2.58;;
72408;SDS011;60402;48.082;11.628;2022-08-05T08:31:42;5.32;;;2.40;;
72408;SDS011;60402;48.082;11.628;2022-08-05T08:34:07;4.80;;;2.55;;
72408;SDS011;60402;48.082;11.628;2022-08-05T08:36:32;5.57;;;2.47;;
72408;SDS011;60402;48.082;11.628;2022-08-05T08:38:57;4.28;;;2.40;;
72408;SDS011;60402;48.082;11.628;2022-08-05T08:41:24;5.22;;;2.40;;
72408;SDS011;60402;48.082;11.628;2022-08-05T08:43:54;5.50;;;2.60;;
72408;SDS011;60402;48.082;11.628;2022-08-05T08:46:20;5.45;;;2.90;;
72408;SDS011;60402;48.082;11.628;2022-08-05T08:48:47;7.10;;;2.90;;
72408;SDS011;60402;48.082;11.628;2022-08-05T08:51:15;5.07;;;2.40;;
72408;SDS011;60402;48.082;11.628;2022-08-05T08:53:42;5.38;;;2.80;;
72408;SDS011;60402;48.082;11.628;2022-08-05T08:56:08;4.88;;;2.55;;
72408;SDS011;60402;48.082;11.628;2022-08-05T08:58:34;5.97;;;3.03;;
72408;SDS011;60402;48.082;11.628;2022-08-05T09:00:59;5.60;;;2.90;;
72408;SDS011;60402;48.082;11.628;2022-08-05T09:03:25;6.32;;;2.72;;
72408;SDS011;60402;48.082;11.628;2022-08-05T09:05:51;5.85;;;2.92;;
72408;SDS011;60402;48.082;11.628;2022-08-05T09:08:16;5.82;;;3.55;;
72408;SDS011;60402;48.082;11.628;2022-08-05T09:10:43;4.70;;;2.83;;
72408;SDS011;60402;48.082;11.628;2022-08-05T09:13:09;5.78;;;3.13;;
72408;SDS011;60402;48.082;11.628;2022-08-05T09:15:37;5.65;;;3.13;;
72408;SDS011;60402;48.082;11.628;2022-08-05T09:18:05;7.32;;;2.95;;
72408;SDS011;60402;48.082;11.628;2022-08-05T09:20:34;5.95;;;3.35;;
72408;SDS011;60402;48.082;11.628;2022-08-05T09:23:10;5.13;;;3.05;;
72408;SDS011;60402;48.082;11.628;2022-08-05T09:25:41;6.15;;;2.80;;
72408;SDS011;60402;48.082;11.628;2022-08-05T09:28:08;4.68;;;2.83;;
72408;SDS011;60402;48.082;11.628;2022-08-05T09:30:37;4.82;;;2.60;;
72408;SDS011;60402;48.082;11.628;2022-08-05T09:33:05;6.60;;;3.13;;
72408;SDS011;60402;48.082;11.628;2022-08-05T09:35:31;6.22;;;3.10;;
72408;SDS011;60402;48.082;11.628;2022-08-05T09:37:56;7.22;;;3.10;;
72408;SDS011;60402;48.082;11.628;2022-08-05T09:42:54;5.68;;;2.80;;
72408;SDS011;60402;48.082;11.628;2022-08-05T09:45:20;7.32;;;3.20;;
72408;SDS011;60402;48.082;11.628;2022-08-05T09:47:45;7.70;;;3.03;;
72408;SDS011;60402;48.082;11.628;2022-08-05T09:50:10;6.35;;;2.92;;
72408;SDS011;60402;48.082;11.628;2022-08-05T09:52:36;5.50;;;3.03;;
72408;SDS011;60402;48.082;11.628;2022-08-05T09:55:05;6.50;;;3.17;;
72408;SDS011;60402;48.082;11.628;2022-08-05T10:00:15;6.90;;;3.22;;
72408;SDS011;60402;48.082;11.628;2022-08-05T10:02:46;7.32;;;3.00;;
72408;SDS011;60402;48.082;11.628;2022-08-05T10:05:19;6.35;;;3.10;;
72408;SDS011;60402;48.082;11.628;2022-08-05T10:10:35;5.72;;;2.88;;
72408;SDS011;60402;48.082;11.628;2022-08-05T10:13:03;5.03;;;2.67;;
72408;SDS011;60402;48.082;11.628;2022-08-05T10:15:30;7.43;;;2.90;;
72408;SDS011;60402;48.082;11.628;2022-08-05T10:20:39;4.72;;;2.60;;
72408;SDS011;60402;48.082;11.628;2022-08-05T10:23:07;8.75;;;3.15;;
72408;SDS011;60402;48.082;11.628;2022-08-05T10:25:34;5.80;;;2.88;;
72408;SDS011;60402;48.082;11.628;2022-08-05T10:28:00;5.57;;;3.00;;
72408;SDS011;60402;48.082;11.628;2022-08-05T10:30:26;5.85;;;2.65;;
72408;SDS011;60402;48.082;11.628;2022-08-05T10:32:51;5.97;;;2.90;;
72408;SDS011;60402;48.082;11.628;2022-08-05T10:35:18;6.65;;;2.67;;
72408;SDS011;60402;48.082;11.628;2022-08-05T10:37:44;5.30;;;2.75;;
72408;SDS011;60402;48.082;11.628;2022-08-05T10:40:19;5.10;;;3.10;;
72408;SDS011;60402;48.082;11.628;2022-08-05T10:42:52;6.18;;;2.65;;
72408;SDS011;60402;48.082;11.628;2022-08-05T10:45:24;5.28;;;2.67;;
72408;SDS011;60402;48.082;11.628;2022-08-05T10:47:50;4.88;;;2.90;;
72408;SDS011;60402;48.082;11.628;2022-08-05T10:50:16;4.72;;;2.55;;
72408;SDS011;60402;48.082;11.628;2022-08-05T10:52:43;5.72;;;2.85;;
72408;SDS011;60402;48.082;11.628;2022-08-05T10:55:18;9.55;;;2.50;;
72408;SDS011;60402;48.082;11.628;2022-08-05T10:57:43;5.00;;;2.55;;
72408;SDS011;60402;48.082;11.628;2022-08-05T11:02:37;8.07;;;2.90;;
72408;SDS011;60402;48.082;11.628;2022-08-05T11:05:03;8.05;;;2.70;;
72408;SDS011;60402;48.082;11.628;2022-08-05T11:07:51;4.60;;;2.58;;
72408;SDS011;60402;48.082;11.628;2022-08-05T11:10:22;6.65;;;3.35;;
72408;SDS011;60402;48.082;11.628;2022-08-05T11:12:48;6.53;;;2.60;;
72408;SDS011;60402;48.082;11.628;2022-08-05T11:15:24;6.60;;;2.70;;
72408;SDS011;60402;48.082;11.628;2022-08-05T11:33:24;5.15;;;2.45;;
72408;SDS011;60402;48.082;11.628;2022-08-05T11:35:53;5.85;;;2.42;;
72408;SDS011;60402;48.082;11.628;2022-08-05T11:38:49;5.43;;;2.72;;
72408;SDS011;60402;48.082;11.628;2022-08-05T11:43:33;6.35;;;2.80;;
72408;SDS011;60402;48.082;11.628;2022-08-05T11:45:59;4.25;;;2.25;;
72408;SDS011;60402;48.082;11.628;2022-08-05T11:48:26;6.05;;;2.70;;
72408;SDS011;60402;48.082;11.628;2022-08-05T11:50:52;7.38;;;2.80;;
72408;SDS011;60402;48.082;11.628;2022-08-05T11:53:18;5.50;;;2.83;;
72408;SDS011;60402;48.082;11.628;2022-08-05T11:55:54;5.78;;;2.53;;
72408;SDS011;60402;48.082;11.628;2022-08-05T11:58:28;5.07;;;2.60;;
72408;SDS011;60402;48.082;11.628;2022-08-05T12:01:07;4.40;;;2.55;;
72408;SDS011;60402;48.082;11.628;2022-08-05T12:03:44;4.35;;;2.45;;
72408;SDS011;60402;48.082;11.628;2022-08-05T12:06:23;5.57;;;2.80;;
72408;SDS011;60402;48.082;11.628;2022-08-05T12:08:57;4.57;;;2.88;;
72408;SDS011;60402;48.082;11.628;2022-08-05T12:11:24;4.63;;;2.55;;
72408;SDS011;60402;48.082;11.628;2022-08-05T12:13:54;5.03;;;2.50;;
72408;SDS011;60402;48.082;11.628;2022-08-05T12:16:24;7.25;;;2.58;;
72408;SDS011;60402;48.082;11.628;2022-08-05T12:18:53;5.28;;;2.65;;
72408;SDS011;60402;48.082;11.628;2022-08-05T12:21:22;8.90;;;2.38;;
72408;SDS011;60402;48.082;11.628;2022-08-05T12:24:11;4.00;;;2.15;;
72408;SDS011;60402;48.082;11.628;2022-08-05T12:26:40;5.10;;;2.70;;
72408;SDS011;60402;48.082;11.628;2022-08-05T12:29:14;5.53;;;2.40;;
72408;SDS011;60402;48.082;11.628;2022-08-05T12:31:51;6.10;;;2.60;;
72408;SDS011;60402;48.082;11.628;2022-08-05T12:34:30;5.68;;;2.30;;
72408;SDS011;60402;48.082;11.628;2022-08-05T12:36:58;5.20;;;2.83;;
72408;SDS011;60402;48.082;11.628;2022-08-05T12:39:26;3.88;;;2.50;;
72408;SDS011;60402;48.082;11.628;2022-08-05T12:41:58;5.40;;;2.60;;
72408;SDS011;60402;48.082;11.628;2022-08-05T12:44:24;7.55;;;2.55;;
72408;SDS011;60402;48.082;11.628;2022-08-05T12:46:50;3.75;;;2.35;;
72408;SDS011;60402;48.082;11.628;2022-08-05T12:49:17;6.03;;;2.42;;
72408;SDS011;60402;48.082;11.628;2022-08-05T12:51:44;4.03;;;2.15;;
72408;SDS011;60402;48.082;11.628;2022-08-05T12:54:23;4.13;;;2.45;;
72408;SDS011;60402;48.082;11.628;2022-08-05T12:56:54;5.53;;;2.38;;
72408;SDS011;60402;48.082;11.628;2022-08-05T12:59:23;4.95;;;2.55;;
72408;SDS011;60402;48.082;11.628;2022-08-05T13:01:54;5.18;;;2.50;;
72408;SDS011;60402;48.082;11.628;2022-08-05T13:04:29;5.50;;;2.35;;
72408;SDS011;60402;48.082;11.628;2022-08-05T13:06:57;5.05;;;2.35;;
72408;SDS011;60402;48.082;11.628;2022-08-05T13:11:51;4.80;;;2.60;;
72408;SDS011;60402;48.082;11.628;2022-08-05T13:14:25;5.05;;;2.20;;
72408;SDS011;60402;48.082;11.628;2022-08-05T13:16:57;4.25;;;2.28;;
72408;SDS011;60402;48.082;11.628;2022-08-05T13:19:26;7.00;;;2.38;;
72408;SDS011;60402;48.082;11.628;2022-08-05T13:21:53;3.90;;;2.53;;
72408;SDS011;60402;48.082;11.628;2022-08-05T13:24:19;5.82;;;2.40;;
72408;SDS011;60402;48.082;11.628;2022-08-05T13:26:47;4.45;;;2.30;;
72408;SDS011;60402;48.082;11.628;2022-08-05T13:29:13;5.07;;;2.30;;
72408;SDS011;60402;48.082;11.628;2022-08-05T13:31:39;5.05;;;2.25;;
72408;SDS011;60402;48.082;11.628;2022-08-05T13:34:06;4.75;;;2.30;;
72408;SDS011;60402;48.082;11.628;2022-08-05T13:36:31;5.53;;;2.25;;
72408;SDS011;60402;48.082;11.628;2022-08-05T13:38:58;7.25;;;2.40;;
72408;SDS011;60402;48.082;11.628;2022-08-05T13:41:24;4.50;;;2.50;;
72408;SDS011;60402;48.082;11.628;2022-08-05T13:43:49;4.82;;;2.50;;
72408;SDS011;60402;48.082;11.628;2022-08-05T13:46:14;5.70;;;2.45;;
72408;SDS011;60402;48.082;11.628;2022-08-05T13:48:42;4.90;;;2.53;;
72408;SDS011;60402;48.082;11.628;2022-08-05T13:51:08;6.55;;;2.88;;
72408;SDS011;60402;48.082;11.628;2022-08-05T13:53:34;6.43;;;2.45;;
72408;SDS011;60402;48.082;11.628;2022-08-05T13:56:00;4.68;;;2.33;;
72408;SDS011;60402;48.082;11.628;2022-08-05T13:58:26;4.10;;;2.22;;
72408;SDS011;60402;48.082;11.628;2022-08-05T14:00:52;5.85;;;2.75;;
72408;SDS011;60402;48.082;11.628;2022-08-05T14:03:18;4.80;;;2.42;;
72408;SDS011;60402;48.082;11.628;2022-08-05T14:05:43;5.22;;;2.50;;
72408;SDS011;60402;48.082;11.628;2022-08-05T14:08:09;5.63;;;2.60;;
72408;SDS011;60402;48.082;11.628;2022-08-05T14:10:34;4.05;;;2.20;;
72408;SDS011;60402;48.082;11.628;2022-08-05T14:12:59;4.57;;;2.35;;
72408;SDS011;60402;48.082;11.628;2022-08-05T14:15:25;4.85;;;2.58;;
72408;SDS011;60402;48.082;11.628;2022-08-05T14:17:51;4.45;;;2.47;;
72408;SDS011;60402;48.082;11.628;2022-08-05T14:20:17;4.40;;;2.40;;
72408;SDS011;60402;48.082;11.628;2022-08-05T14:22:42;4.25;;;2.55;;
72408;SDS011;60402;48.082;11.628;2022-08-05T14:25:08;4.75;;;2.78;;
72408;SDS011;60402;48.082;11.628;2022-08-05T14:27:34;3.20;;;2.20;;
72408;SDS011;60402;48.082;11.628;2022-08-05T14:29:59;5.82;;;2.60;;
72408;SDS011;60402;48.082;11.628;2022-08-05T14:32:25;5.15;;;2.55;;
72408;SDS011;60402;48.082;11.628;2022-08-05T14:34:50;6.30;;;2.65;;
72408;SDS011;60402;48.082;11.628;2022-08-05T14:37:16;6.18;;;2.60;;
72408;SDS011;60402;48.082;11.628;2022-08-05T14:39:41;4.38;;;2.47;;
72408;SDS011;60402;48.082;11.628;2022-08-05T14:42:06;4.70;;;2.60;;
72408;SDS011;60402;48.082;11.628;2022-08-05T14:44:33;7.65;;;2.88;;
72408;SDS011;60402;48.082;11.628;2022-08-05T14:46:58;5.18;;;2.55;;
72408;SDS011;60402;48.082;11.628;2022-08-05T14:49:23;5.30;;;2.63;;
72408;SDS011;60402;48.082;11.628;2022-08-05T14:51:49;4.63;;;2.60;;
72408;SDS011;60402;48.082;11.628;2022-08-05T14:54:14;5.20;;;2.65;;
72408;SDS011;60402;48.082;11.628;2022-08-05T14:56:40;8.07;;;3.00;;
72408;SDS011;60402;48.082;11.628;2022-08-05T14:59:05;5.85;;;2.33;;
72408;SDS011;60402;48.082;11.628;2022-08-05T15:01:30;4.47;;;2.40;;
72408;SDS011;60402;48.082;11.628;2022-08-05T15:03:56;4.47;;;2.40;;
72408;SDS011;60402;48.082;11.628;2022-08-05T15:06:21;4.13;;;2.55;;
72408;SDS011;60402;48.082;11.628;2022-08-05T15:08:46;4.82;;;2.25;;
72408;SDS011;60402;48.082;11.628;2022-08-05T15:11:12;4.40;;;2.55;;
72408;SDS011;60402;48.082;11.628;2022-08-05T15:13:37;6.40;;;2.80;;
72408;SDS011;60402;48.082;11.628;2022-08-05T15:16:02;5.30;;;2.47;;
72408;SDS011;60402;48.082;11.628;2022-08-05T15:18:28;6.82;;;2.80;;
72408;SDS011;60402;48.082;11.628;2022-08-05T15:20:54;6.30;;;2.83;;
72408;SDS011;60402;48.082;11.628;2022-08-05T15:23:19;4.45;;;2.78;;
72408;SDS011;60402;48.082;11.628;2022-08-05T15:25:44;5.30;;;2.67;;